createdAt,value
2022-12-08T00:00:57.627Z,950.96
2022-12-08T00:03:56.868Z,950.96
2022-12-08T00:06:57.215Z,950.94
2022-12-08T00:09:57.282Z,950.89
2022-12-08T00:12:56.734Z,950.85
2022-12-08T00:15:57.985Z,950.9
2022-12-08T00:18:57.315Z,950.94
2022-12-08T00:21:57.482Z,950.78
2022-12-08T00:24:57.459Z,950.85
2022-12-08T00:27:57.417Z,950.86
2022-12-08T00:30:58.063Z,950.79
2022-12-08T00:33:57.794Z,950.82
2022-12-08T00:36:57.520Z,950.72
2022-12-08T00:39:57.277Z,950.66
2022-12-08T00:42:57.376Z,950.65
2022-12-08T00:45:57.302Z,950.59
2022-12-08T00:48:57.671Z,950.7
2022-12-08T00:51:56.961Z,950.73
2022-12-08T00:54:57.553Z,950.56
2022-12-08T00:57:56.958Z,950.6
2022-12-08T01:00:57.849Z,950.62
2022-12-08T01:03:57.582Z,950.52
2022-12-08T01:06:57.130Z,950.59
2022-12-08T01:09:57.263Z,950.56
2022-12-08T01:12:57.599Z,950.5
2022-12-08T01:15:56.999Z,950.51
2022-12-08T01:18:57.548Z,950.47
2022-12-08T01:21:57.655Z,950.55
2022-12-08T01:24:57.287Z,950.56
2022-12-08T01:27:57.756Z,950.44
2022-12-08T01:30:57.616Z,950.41
2022-12-08T01:33:57.264Z,950.41
2022-12-08T01:36:57.291Z,950.41
2022-12-08T01:39:57.236Z,950.38
2022-12-08T01:42:58.066Z,950.35
2022-12-08T01:45:58.111Z,950.3
2022-12-08T01:48:57.557Z,950.36
2022-12-08T01:51:57.764Z,950.34
2022-12-08T01:54:56.911Z,950.37
2022-12-08T01:57:57.178Z,950.35
2022-12-08T02:00:58.212Z,950.47
2022-12-08T02:03:57.823Z,950.38
2022-12-08T02:06:57.861Z,950.44
2022-12-08T02:09:57.589Z,950.36
2022-12-08T02:12:57.558Z,950.28
2022-12-08T02:15:56.993Z,950.34
2022-12-08T02:19:22.517Z,950.31
2022-12-08T02:21:57.636Z,950.21
2022-12-08T02:24:57.054Z,950.29
2022-12-08T02:27:57.805Z,950.15
2022-12-08T02:30:57.558Z,950.16
2022-12-08T02:33:57.606Z,950.11
2022-12-08T02:36:57.548Z,950.09
2022-12-08T02:39:56.962Z,950.07
2022-12-08T02:42:57.817Z,950.11
2022-12-08T02:45:57.613Z,950.09
2022-12-08T02:48:57.371Z,950.08
2022-12-08T02:51:57.056Z,950.06
2022-12-08T02:54:57.738Z,950.03
2022-12-08T02:57:59.843Z,949.97
2022-12-08T03:00:57.738Z,949.95
2022-12-08T03:03:57.656Z,949.93
2022-12-08T03:06:57.756Z,949.9
2022-12-08T03:09:57.882Z,949.91
2022-12-08T03:12:57.410Z,949.92
2022-12-08T03:15:57.198Z,949.91
2022-12-08T03:18:56.868Z,949.91
2022-12-08T03:21:57.149Z,949.88
2022-12-08T03:24:56.972Z,949.92
2022-12-08T03:27:57.583Z,949.96
2022-12-08T03:30:57.921Z,949.82
2022-12-08T03:33:56.826Z,949.8
2022-12-08T03:36:57.600Z,949.75
2022-12-08T03:39:57.530Z,949.72
2022-12-08T03:42:57.439Z,949.67
2022-12-08T03:45:57.102Z,949.59
2022-12-08T03:48:57.278Z,949.62
2022-12-08T03:51:57.293Z,949.52
2022-12-08T03:54:57.493Z,949.58
2022-12-08T03:57:57.548Z,949.63
2022-12-08T04:00:58.248Z,949.62
2022-12-08T04:03:57.712Z,949.6
2022-12-08T04:06:56.864Z,949.62
2022-12-08T04:09:57.270Z,949.57
2022-12-08T04:12:57.270Z,949.53
2022-12-08T04:15:58.371Z,949.59
2022-12-08T04:18:58.064Z,949.56
2022-12-08T04:21:57.174Z,949.42
2022-12-08T04:24:57.245Z,949.48
2022-12-08T04:27:57.707Z,949.47
2022-12-08T04:30:57.097Z,949.47
2022-12-08T04:33:58.160Z,949.49
2022-12-08T04:36:57.683Z,949.41
2022-12-08T04:39:57.099Z,949.37
2022-12-08T04:42:57.763Z,949.42
2022-12-08T04:45:57.820Z,949.45
2022-12-08T04:48:58.142Z,949.39
2022-12-08T04:51:58.010Z,949.37
2022-12-08T04:54:57.894Z,949.4
2022-12-08T04:57:57.914Z,949.38
2022-12-08T05:00:58.909Z,949.36
2022-12-08T05:03:57.491Z,949.26
2022-12-08T05:06:57.399Z,949.23
2022-12-08T05:09:58.239Z,949.23
2022-12-08T05:12:57.472Z,949.24
2022-12-08T05:15:58.333Z,949.26
2022-12-08T05:18:57.185Z,949.24
2022-12-08T05:21:57.481Z,949.21
2022-12-08T05:24:57.146Z,949.22
2022-12-08T05:28:17.513Z,949.26
2022-12-08T05:30:58.930Z,949.21
2022-12-08T05:34:02.454Z,949.24
2022-12-08T05:36:57.430Z,949.21
2022-12-08T05:39:57.064Z,949.15
2022-12-08T05:42:57.101Z,949.13
2022-12-08T05:45:57.233Z,949.15
2022-12-08T05:48:57.367Z,949.19
2022-12-08T05:51:58.063Z,949.21
2022-12-08T05:54:57.743Z,949.09
2022-12-08T05:57:57.615Z,949.1
2022-12-08T06:00:59.116Z,949.14
2022-12-08T06:03:57.337Z,949.18
2022-12-08T06:06:57.466Z,949.15
2022-12-08T06:09:57.731Z,949.11
2022-12-08T06:12:57.673Z,949.14
2022-12-08T06:15:57.564Z,949.12
2022-12-08T06:18:57.178Z,949.13
2022-12-08T06:21:57.248Z,949.16
2022-12-08T06:24:57.957Z,949.06
2022-12-08T06:27:57.027Z,949.14
2022-12-08T06:30:57.324Z,949.11
2022-12-08T06:33:58.118Z,949.09
2022-12-08T06:36:57.096Z,949.09
2022-12-08T06:39:57.149Z,949.08
2022-12-08T06:42:57.612Z,949.24
2022-12-08T06:45:57.689Z,949.17
2022-12-08T06:48:57.160Z,949.24
2022-12-08T06:51:57.054Z,949.21
2022-12-08T06:54:58.037Z,949.19
2022-12-08T06:57:57.757Z,949.17
2022-12-08T07:00:58.299Z,949.07
2022-12-08T07:03:57.868Z,949.1
2022-12-08T07:06:57.437Z,949.15
2022-12-08T07:09:57.943Z,949.16
2022-12-08T07:12:57.537Z,949.11
2022-12-08T07:15:57.828Z,949.18
2022-12-08T07:18:57.764Z,949.22
2022-12-08T07:21:57.983Z,949.22
2022-12-08T07:24:57.363Z,949.19
2022-12-08T07:27:58.010Z,949.06
2022-12-08T07:30:58.625Z,949.03
2022-12-08T07:33:57.509Z,949.07
2022-12-08T07:36:57.069Z,949.02
2022-12-08T07:39:57.355Z,949.07
2022-12-08T07:42:57.571Z,949.1
2022-12-08T07:45:57.761Z,949.2
2022-12-08T07:48:57.971Z,949.21
2022-12-08T07:51:57.607Z,949.12
2022-12-08T07:54:57.150Z,949.07
2022-12-08T07:57:57.753Z,949.11
2022-12-08T08:00:57.970Z,949.07
2022-12-08T08:03:57.177Z,949.13
2022-12-08T08:06:57.117Z,949.18
2022-12-08T08:09:58.283Z,949.15
2022-12-08T08:12:57.125Z,949.13
2022-12-08T08:15:57.510Z,949.16
2022-12-08T08:18:56.930Z,949.12
2022-12-08T08:21:57.173Z,949.09
2022-12-08T08:24:56.886Z,949.05
2022-12-08T08:27:57.014Z,949.1
2022-12-08T08:30:57.864Z,949.15
2022-12-08T08:33:57.223Z,949.15
2022-12-08T08:37:00.911Z,949.13
2022-12-08T08:39:57.582Z,949.06
2022-12-08T08:42:57.574Z,949.16
2022-12-08T08:45:57.598Z,949.12
2022-12-08T08:48:57.436Z,949.19
2022-12-08T08:51:56.719Z,949.16
2022-12-08T08:54:57.420Z,949.15
2022-12-08T08:57:57.317Z,949.12
2022-12-08T09:00:59.702Z,949.07
2022-12-08T09:03:57.035Z,949.05
2022-12-08T09:06:58.080Z,949.01
2022-12-08T09:10:01.598Z,949.13
2022-12-08T09:12:57.005Z,949.13
2022-12-08T09:15:57.177Z,949.02
2022-12-08T09:18:57.095Z,948.97
2022-12-08T09:21:57.209Z,948.94
2022-12-08T09:24:57.097Z,948.92
2022-12-08T09:27:56.878Z,949.01
2022-12-08T09:30:57.613Z,949.04
2022-12-08T09:33:57.645Z,948.92
2022-12-08T09:36:57.251Z,949.0
2022-12-08T09:39:57.678Z,948.92
2022-12-08T09:42:59.436Z,949.03
2022-12-08T09:45:57.631Z,948.88
2022-12-08T09:49:01.356Z,948.93
2022-12-08T09:51:57.079Z,948.88
2022-12-08T09:54:57.667Z,948.79
2022-12-08T09:57:57.931Z,948.89
2022-12-08T10:00:59.873Z,948.72
2022-12-08T10:03:57.317Z,948.76
2022-12-08T10:06:57.453Z,948.7
2022-12-08T10:09:57.753Z,948.69
2022-12-08T10:12:56.815Z,948.57
2022-12-08T10:15:57.287Z,948.59
2022-12-08T10:18:57.433Z,948.54
2022-12-08T10:21:57.912Z,948.44
2022-12-08T10:24:57.270Z,948.46
2022-12-08T10:27:56.979Z,948.45
2022-12-08T10:30:57.329Z,948.45
2022-12-08T10:33:57.031Z,948.4
2022-12-08T10:36:57.945Z,948.44
2022-12-08T10:39:57.066Z,948.35
2022-12-08T10:42:56.913Z,948.33
2022-12-08T10:45:57.169Z,948.32
2022-12-08T10:48:57.582Z,948.31
2022-12-08T10:51:56.939Z,948.29
2022-12-08T10:54:58.184Z,948.24
2022-12-08T10:57:57.964Z,948.21
2022-12-08T11:00:56.925Z,948.11
2022-12-08T11:04:16.651Z,948.11
2022-12-08T11:06:57.956Z,948.09
2022-12-08T11:09:58.137Z,948.08
2022-12-08T11:12:57.121Z,947.97
2022-12-08T11:15:57.424Z,947.96
2022-12-08T11:18:57.218Z,947.85
2022-12-08T11:21:57.848Z,947.89
2022-12-08T11:24:56.838Z,947.74
2022-12-08T11:27:57.152Z,947.79
2022-12-08T11:30:57.697Z,947.74
2022-12-08T11:33:58.129Z,947.77
2022-12-08T11:36:56.942Z,947.77
2022-12-08T11:39:57.237Z,947.77
2022-12-08T11:42:57.662Z,947.74
2022-12-08T11:45:57.919Z,947.63
2022-12-08T11:49:01.164Z,947.72
2022-12-08T11:51:57.652Z,947.73
2022-12-08T11:54:56.836Z,947.67
2022-12-08T11:57:56.866Z,947.65
2022-12-08T12:00:57.872Z,947.62
2022-12-08T12:03:57.389Z,947.57
2022-12-08T12:06:57.778Z,947.62
2022-12-08T12:09:57.709Z,947.63
2022-12-08T12:12:57.447Z,947.6
2022-12-08T12:15:56.967Z,947.61
2022-12-08T12:18:57.655Z,947.47
2022-12-08T12:21:57.631Z,947.58
2022-12-08T12:24:56.786Z,947.55
2022-12-08T12:27:57.618Z,947.54
2022-12-08T12:30:57.590Z,947.54
2022-12-08T12:33:57.492Z,947.49
2022-12-08T12:36:57.253Z,947.44
2022-12-08T12:39:57.645Z,947.48
2022-12-08T12:42:57.104Z,947.48
2022-12-08T12:45:56.827Z,947.52
2022-12-08T12:48:56.698Z,947.46
2022-12-08T12:51:58.031Z,947.43
2022-12-08T12:54:57.548Z,947.35
2022-12-08T12:57:57.625Z,947.27
2022-12-08T13:00:57.985Z,947.34
2022-12-08T13:03:57.596Z,947.33
2022-12-08T13:06:56.855Z,947.3
2022-12-08T13:09:57.801Z,947.1
2022-12-08T13:12:57.527Z,947.17
2022-12-08T13:15:58.369Z,947.17
2022-12-08T13:18:57.556Z,947.12
2022-12-08T13:21:57.523Z,947.1
2022-12-08T13:24:56.623Z,946.99
2022-12-08T13:27:58.199Z,947.09
2022-12-08T13:30:57.017Z,947.16
2022-12-08T13:33:57.564Z,947.1
2022-12-08T13:36:56.561Z,947.02
2022-12-08T13:39:56.942Z,946.96
2022-12-08T13:42:57.654Z,946.91
2022-12-08T13:46:57.555Z,947.11
2022-12-08T13:57:57.215Z,946.99
2022-12-08T14:00:58.514Z,947.01
2022-12-08T14:04:33.779Z,947.07
2022-12-08T14:06:57.581Z,947.07
2022-12-08T14:09:59.107Z,947.01
2022-12-08T14:12:57.847Z,946.95
2022-12-08T14:15:57.872Z,947.01
2022-12-08T14:18:57.898Z,946.97
2022-12-08T14:21:57.838Z,946.97
2022-12-08T14:24:57.433Z,947.01
2022-12-08T14:27:57.330Z,946.97
2022-12-08T14:30:57.674Z,946.98
2022-12-08T14:33:57.647Z,946.96
2022-12-08T14:36:57.690Z,946.95
2022-12-08T14:39:58.518Z,946.9
2022-12-08T14:42:58.444Z,946.98
2022-12-08T14:45:57.509Z,946.95
2022-12-08T14:48:57.915Z,947.05
2022-12-08T14:51:58.254Z,946.96
2022-12-08T14:54:57.640Z,946.93
2022-12-08T14:57:58.120Z,946.96
2022-12-08T15:00:57.397Z,946.93
2022-12-08T15:03:57.328Z,947.04
2022-12-08T15:06:57.911Z,947.02
2022-12-08T15:09:57.788Z,947.01
2022-12-08T15:12:57.871Z,946.98
2022-12-08T15:15:57.211Z,946.94
2022-12-08T15:18:57.444Z,946.97
2022-12-08T15:21:57.178Z,946.81
2022-12-08T15:24:57.434Z,946.97
2022-12-08T15:27:57.096Z,946.89
2022-12-08T15:30:57.732Z,946.82
2022-12-08T15:33:57.781Z,946.89
2022-12-08T15:36:57.257Z,946.82
2022-12-08T15:39:58.406Z,946.85
2022-12-08T15:42:57.134Z,946.79
2022-12-08T15:45:59.907Z,946.92
2022-12-08T15:48:58.251Z,947.02
2022-12-08T15:52:09.269Z,946.92
2022-12-08T15:54:57.827Z,946.92
2022-12-08T15:58:51.782Z,946.92
2022-12-08T16:00:58.495Z,946.91
2022-12-08T16:04:47.776Z,946.92
2022-12-08T16:07:20.305Z,946.82
2022-12-08T16:09:58.456Z,946.94
2022-12-08T16:13:54.991Z,946.96
2022-12-08T16:16:00.730Z,946.81
2022-12-08T16:18:57.170Z,946.85
2022-12-08T16:22:44.842Z,946.76
2022-12-08T16:25:04.984Z,946.74
2022-12-08T16:28:05.215Z,946.8
2022-12-08T16:30:58.244Z,946.7
2022-12-08T16:33:57.724Z,946.76
2022-12-08T16:36:57.865Z,946.74
2022-12-08T16:39:58.145Z,946.69
2022-12-08T16:42:57.846Z,946.6
2022-12-08T16:45:58.205Z,946.6
2022-12-08T16:48:58.064Z,946.64
2022-12-08T16:51:57.442Z,946.64
2022-12-08T16:54:58.638Z,946.61
2022-12-08T16:57:57.678Z,946.64
2022-12-08T17:00:58.679Z,946.56
2022-12-08T17:04:29.927Z,946.65
2022-12-08T17:06:57.187Z,946.76
2022-12-08T17:09:58.193Z,946.71
2022-12-08T17:12:57.686Z,946.7
2022-12-08T17:15:57.868Z,946.7
2022-12-08T17:18:57.259Z,946.79
2022-12-08T17:21:57.338Z,946.66
2022-12-08T17:24:57.385Z,946.7
2022-12-08T17:27:57.375Z,946.76
2022-12-08T17:30:57.594Z,946.81
2022-12-08T17:33:57.437Z,946.8
2022-12-08T17:36:56.919Z,946.79
2022-12-08T17:39:57.850Z,946.85
2022-12-08T17:42:57.270Z,946.75
2022-12-08T17:45:57.193Z,946.72
2022-12-08T17:48:57.440Z,946.74
2022-12-08T17:51:57.187Z,946.72
2022-12-08T17:54:57.543Z,946.69
2022-12-08T17:57:57.808Z,946.77
2022-12-08T18:01:25.488Z,946.69
2022-12-08T18:03:57.570Z,946.73
2022-12-08T18:06:57.173Z,946.79
2022-12-08T18:09:58.017Z,946.76
2022-12-08T18:12:58.740Z,946.73
2022-12-08T18:15:57.246Z,946.73
2022-12-08T18:18:57.354Z,946.77
2022-12-08T18:21:57.666Z,946.72
2022-12-08T18:24:57.617Z,946.8
2022-12-08T18:27:57.248Z,946.8
2022-12-08T18:30:57.194Z,946.82
2022-12-08T18:33:57.540Z,946.82
2022-12-08T18:36:57.604Z,946.71
2022-12-08T18:39:57.644Z,946.68
2022-12-08T18:42:57.290Z,946.73
2022-12-08T18:45:57.736Z,946.64
2022-12-08T18:48:57.138Z,946.59
2022-12-08T18:51:57.560Z,946.53
2022-12-08T18:55:06.402Z,946.59
2022-12-08T18:57:57.229Z,946.6
2022-12-08T19:00:58.237Z,946.58
2022-12-08T19:04:26.561Z,946.53
2022-12-08T19:06:57.261Z,946.48
2022-12-08T19:09:57.707Z,946.43
2022-12-08T19:12:56.939Z,946.47
2022-12-08T19:15:57.149Z,946.43
2022-12-08T19:18:58.392Z,946.42
2022-12-08T19:21:57.171Z,946.38
2022-12-08T19:24:56.979Z,946.4
2022-12-08T19:27:57.048Z,946.36
2022-12-08T19:30:57.756Z,946.33
2022-12-08T19:33:57.176Z,946.45
2022-12-08T19:36:57.652Z,946.37
2022-12-08T19:39:57.347Z,946.33
2022-12-08T19:42:57.974Z,946.47
2022-12-08T19:45:58.173Z,946.4
2022-12-08T19:48:57.074Z,946.36
2022-12-08T19:51:57.788Z,946.5
2022-12-08T19:54:57.519Z,946.49
2022-12-08T19:57:57.792Z,946.36
2022-12-08T20:00:57.605Z,946.45
2022-12-08T20:03:57.626Z,946.4
2022-12-08T20:06:57.155Z,946.27
2022-12-08T20:09:58.107Z,946.32
2022-12-08T20:12:57.734Z,946.26
2022-12-08T20:15:57.823Z,946.23
2022-12-08T20:18:57.600Z,946.22
2022-12-08T20:21:57.820Z,946.21
2022-12-08T20:25:00.793Z,946.19
2022-12-08T20:27:57.077Z,946.23
2022-12-08T20:30:57.719Z,946.19
2022-12-08T20:33:57.709Z,946.26
2022-12-08T20:36:57.829Z,946.42
2022-12-08T20:39:56.738Z,946.39
2022-12-08T20:42:57.279Z,946.34
2022-12-08T20:45:58.256Z,946.25
2022-12-08T20:48:56.912Z,946.26
2022-12-08T20:51:58.357Z,946.36
2022-12-08T20:54:57.376Z,946.28
2022-12-08T20:57:57.346Z,946.27
2022-12-08T21:00:57.891Z,946.2
2022-12-08T21:03:58.153Z,946.29
2022-12-08T21:06:57.885Z,946.28
2022-12-08T21:09:58.293Z,946.23
2022-12-08T21:12:57.347Z,946.2
2022-12-08T21:15:58.069Z,946.25
2022-12-08T21:18:57.949Z,946.26
2022-12-08T21:21:57.800Z,946.18
2022-12-08T21:24:57.867Z,946.21
2022-12-08T21:27:57.471Z,946.2
2022-12-08T21:30:57.129Z,946.27
2022-12-08T21:33:57.706Z,946.27
2022-12-08T21:36:57.485Z,946.22
2022-12-08T21:39:57.546Z,946.31
2022-12-08T21:42:57.989Z,946.2
2022-12-08T21:45:57.077Z,946.24
2022-12-08T21:48:57.119Z,946.23
2022-12-08T21:51:57.910Z,946.27
2022-12-08T21:54:57.758Z,946.24
2022-12-08T21:57:57.850Z,946.26
2022-12-08T22:00:58.224Z,946.17
2022-12-08T22:03:58.103Z,946.31
2022-12-08T22:06:57.436Z,946.25
2022-12-08T22:09:57.544Z,946.34
2022-12-08T22:12:57.547Z,946.32
2022-12-08T22:15:57.569Z,946.2
2022-12-08T22:18:57.630Z,946.24
2022-12-08T22:21:57.096Z,946.28
2022-12-08T22:24:57.285Z,946.24
2022-12-08T22:27:57.053Z,946.18
2022-12-08T22:30:57.996Z,946.29
2022-12-08T22:33:57.554Z,946.14
2022-12-08T22:36:57.124Z,946.14
2022-12-08T22:39:57.518Z,946.14
2022-12-08T22:42:57.936Z,946.01
2022-12-08T22:45:58.058Z,946.08
2022-12-08T22:48:56.995Z,946.05
2022-12-08T22:51:57.666Z,946.01
2022-12-08T22:54:57.358Z,945.9
2022-12-08T22:57:57.720Z,946.03
2022-12-08T23:00:57.786Z,945.89
2022-12-08T23:03:58.466Z,945.88
2022-12-08T23:06:57.764Z,945.82
2022-12-08T23:09:56.949Z,945.75
2022-12-08T23:13:02.174Z,945.79
2022-12-08T23:15:58.315Z,945.81
2022-12-08T23:18:57.475Z,945.71
2022-12-08T23:21:57.470Z,945.78
2022-12-08T23:24:56.977Z,945.69
2022-12-08T23:27:56.989Z,945.78
2022-12-08T23:30:57.772Z,945.79
2022-12-08T23:33:57.404Z,945.76
2022-12-08T23:36:57.556Z,945.77
2022-12-08T23:39:58.178Z,945.67
2022-12-08T23:42:57.001Z,945.76
2022-12-08T23:45:57.406Z,945.73
2022-12-08T23:48:57.177Z,945.59
2022-12-08T23:51:57.438Z,945.49
2022-12-08T23:54:57.213Z,945.48
2022-12-08T23:57:57.758Z,945.52
